sensor_id;sensor_type;location;lat;lon;timestamp;temperature;humidity
38265;DHT22;24062;47.480;8.768;2023-12-22T00:01:27;19.90;52.10
38265;DHT22;24062;47.480;8.768;2023-12-22T00:03:53;19.90;52.20
38265;DHT22;24062;47.480;8.768;2023-12-22T00:06:20;19.90;52.30
38265;DHT22;24062;47.480;8.768;2023-12-22T00:08:48;19.80;52.20
38265;DHT22;24062;47.480;8.768;2023-12-22T00:11:15;19.80;52.30
38265;DHT22;24062;47.480;8.768;2023-12-22T00:13:42;19.80;52.30
38265;DHT22;24062;47.480;8.768;2023-12-22T00:16:09;19.80;52.30
38265;DHT22;24062;47.480;8.768;2023-12-22T00:18:37;19.80;52.30
38265;DHT22;24062;47.480;8.768;2023-12-22T00:21:04;19.80;52.30
38265;DHT22;24062;47.480;8.768;2023-12-22T00:23:31;19.80;52.40
38265;DHT22;24062;47.480;8.768;2023-12-22T00:26:03;19.80;52.40
38265;DHT22;24062;47.480;8.768;2023-12-22T00:28:29;19.70;52.30
38265;DHT22;24062;47.480;8.768;2023-12-22T00:30:57;19.70;52.40
38265;DHT22;24062;47.480;8.768;2023-12-22T00:33:24;19.70;52.40
38265;DHT22;24062;47.480;8.768;2023-12-22T00:35:51;19.70;52.40
38265;DHT22;24062;47.480;8.768;2023-12-22T00:38:18;19.70;52.50
38265;DHT22;24062;47.480;8.768;2023-12-22T00:40:45;19.70;52.50
38265;DHT22;24062;47.480;8.768;2023-12-22T00:43:13;19.60;53.00
38265;DHT22;24062;47.480;8.768;2023-12-22T00:45:40;19.60;52.50
38265;DHT22;24062;47.480;8.768;2023-12-22T00:48:07;19.60;52.50
38265;DHT22;24062;47.480;8.768;2023-12-22T00:50:34;19.60;52.50
38265;DHT22;24062;47.480;8.768;2023-12-22T00:53:00;19.60;52.50
38265;DHT22;24062;47.480;8.768;2023-12-22T00:55:27;19.60;52.50
38265;DHT22;24062;47.480;8.768;2023-12-22T00:57:54;19.60;52.60
38265;DHT22;24062;47.480;8.768;2023-12-22T01:00:22;19.50;52.50
38265;DHT22;24062;47.480;8.768;2023-12-22T01:02:49;19.50;52.50
38265;DHT22;24062;47.480;8.768;2023-12-22T01:05:16;19.50;52.50
38265;DHT22;24062;47.480;8.768;2023-12-22T01:07:43;19.50;52.50
38265;DHT22;24062;47.480;8.768;2023-12-22T01:10:10;19.50;52.50
38265;DHT22;24062;47.480;8.768;2023-12-22T01:12:37;19.50;53.20
38265;DHT22;24062;47.480;8.768;2023-12-22T01:15:05;19.50;52.60
38265;DHT22;24062;47.480;8.768;2023-12-22T01:17:33;19.50;52.60
38265;DHT22;24062;47.480;8.768;2023-12-22T01:20:00;19.40;52.70
38265;DHT22;24062;47.480;8.768;2023-12-22T01:22:27;19.50;52.70
38265;DHT22;24062;47.480;8.768;2023-12-22T01:24:56;19.50;52.70
38265;DHT22;24062;47.480;8.768;2023-12-22T01:27:23;19.50;52.70
38265;DHT22;24062;47.480;8.768;2023-12-22T01:29:50;19.50;52.70
38265;DHT22;24062;47.480;8.768;2023-12-22T01:32:17;19.40;52.70
38265;DHT22;24062;47.480;8.768;2023-12-22T01:34:46;19.40;52.70
38265;DHT22;24062;47.480;8.768;2023-12-22T01:37:13;19.40;52.70
38265;DHT22;24062;47.480;8.768;2023-12-22T01:39:40;19.40;52.60
38265;DHT22;24062;47.480;8.768;2023-12-22T01:42:06;19.30;52.60
38265;DHT22;24062;47.480;8.768;2023-12-22T01:44:33;19.40;52.70
38265;DHT22;24062;47.480;8.768;2023-12-22T01:47:00;19.40;52.80
38265;DHT22;24062;47.480;8.768;2023-12-22T01:49:27;19.30;52.70
38265;DHT22;24062;47.480;8.768;2023-12-22T01:51:56;19.30;52.70
38265;DHT22;24062;47.480;8.768;2023-12-22T01:54:24;19.30;52.70
38265;DHT22;24062;47.480;8.768;2023-12-22T01:56:51;19.30;52.80
38265;DHT22;24062;47.480;8.768;2023-12-22T01:59:18;19.30;52.80
38265;DHT22;24062;47.480;8.768;2023-12-22T02:01:45;19.30;52.80
38265;DHT22;24062;47.480;8.768;2023-12-22T02:04:12;19.30;52.80
38265;DHT22;24062;47.480;8.768;2023-12-22T02:06:40;19.30;52.80
38265;DHT22;24062;47.480;8.768;2023-12-22T02:09:09;19.30;52.90
38265;DHT22;24062;47.480;8.768;2023-12-22T02:11:38;19.20;52.80
38265;DHT22;24062;47.480;8.768;2023-12-22T02:14:05;19.20;52.80
38265;DHT22;24062;47.480;8.768;2023-12-22T02:16:38;19.20;52.90
38265;DHT22;24062;47.480;8.768;2023-12-22T02:19:29;19.20;52.90
38265;DHT22;24062;47.480;8.768;2023-12-22T02:22:00;19.20;52.90
38265;DHT22;24062;47.480;8.768;2023-12-22T02:24:28;19.20;53.00
38265;DHT22;24062;47.480;8.768;2023-12-22T02:27:00;19.20;52.90
38265;DHT22;24062;47.480;8.768;2023-12-22T02:29:31;19.10;52.90
38265;DHT22;24062;47.480;8.768;2023-12-22T02:32:07;19.10;52.90
38265;DHT22;24062;47.480;8.768;2023-12-22T02:34:36;19.10;52.90
38265;DHT22;24062;47.480;8.768;2023-12-22T02:37:06;19.10;52.90
38265;DHT22;24062;47.480;8.768;2023-12-22T02:39:35;19.10;52.90
38265;DHT22;24062;47.480;8.768;2023-12-22T02:42:03;19.10;53.00
38265;DHT22;24062;47.480;8.768;2023-12-22T02:44:31;19.10;53.00
38265;DHT22;24062;47.480;8.768;2023-12-22T02:46:58;19.10;52.90
38265;DHT22;24062;47.480;8.768;2023-12-22T02:49:25;19.10;53.00
38265;DHT22;24062;47.480;8.768;2023-12-22T02:51:52;19.10;53.00
38265;DHT22;24062;47.480;8.768;2023-12-22T02:54:18;19.10;53.00
38265;DHT22;24062;47.480;8.768;2023-12-22T02:56:47;19.10;53.00
38265;DHT22;24062;47.480;8.768;2023-12-22T02:59:14;19.20;52.80
38265;DHT22;24062;47.480;8.768;2023-12-22T03:01:41;19.30;52.80
38265;DHT22;24062;47.480;8.768;2023-12-22T03:04:07;19.40;52.80
38265;DHT22;24062;47.480;8.768;2023-12-22T03:06:34;19.50;52.70
38265;DHT22;24062;47.480;8.768;2023-12-22T03:09:01;19.50;52.60
38265;DHT22;24062;47.480;8.768;2023-12-22T03:11:29;19.60;52.70
38265;DHT22;24062;47.480;8.768;2023-12-22T03:13:57;19.70;52.70
38265;DHT22;24062;47.480;8.768;2023-12-22T03:16:24;19.80;52.60
38265;DHT22;24062;47.480;8.768;2023-12-22T03:18:51;19.80;52.50
38265;DHT22;24062;47.480;8.768;2023-12-22T03:21:18;19.90;52.50
38265;DHT22;24062;47.480;8.768;2023-12-22T03:23:45;20.10;52.50
38265;DHT22;24062;47.480;8.768;2023-12-22T03:26:12;20.10;52.50
38265;DHT22;24062;47.480;8.768;2023-12-22T03:28:39;20.20;52.30
38265;DHT22;24062;47.480;8.768;2023-12-22T03:31:07;20.40;52.40
38265;DHT22;24062;47.480;8.768;2023-12-22T03:33:34;20.50;52.30
38265;DHT22;24062;47.480;8.768;2023-12-22T03:36:01;20.50;52.20
38265;DHT22;24062;47.480;8.768;2023-12-22T03:38:27;20.70;52.20
38265;DHT22;24062;47.480;8.768;2023-12-22T03:40:54;20.80;52.10
38265;DHT22;24062;47.480;8.768;2023-12-22T03:43:21;20.80;52.00
38265;DHT22;24062;47.480;8.768;2023-12-22T03:45:48;20.90;51.90
38265;DHT22;24062;47.480;8.768;2023-12-22T03:48:16;21.00;51.90
38265;DHT22;24062;47.480;8.768;2023-12-22T03:50:43;21.10;51.80
38265;DHT22;24062;47.480;8.768;2023-12-22T03:53:10;21.10;51.80
38265;DHT22;24062;47.480;8.768;2023-12-22T03:55:37;21.10;51.60
38265;DHT22;24062;47.480;8.768;2023-12-22T03:58:03;21.20;51.70
38265;DHT22;24062;47.480;8.768;2023-12-22T04:00:32;21.20;51.60
38265;DHT22;24062;47.480;8.768;2023-12-22T04:03:00;21.30;51.50
38265;DHT22;24062;47.480;8.768;2023-12-22T04:05:28;21.30;51.50
38265;DHT22;24062;47.480;8.768;2023-12-22T04:07:55;21.40;51.40
38265;DHT22;24062;47.480;8.768;2023-12-22T04:10:22;21.40;51.40
38265;DHT22;24062;47.480;8.768;2023-12-22T04:12:49;21.40;51.30
38265;DHT22;24062;47.480;8.768;2023-12-22T04:15:15;21.50;51.30
38265;DHT22;24062;47.480;8.768;2023-12-22T04:17:42;21.50;51.30
38265;DHT22;24062;47.480;8.768;2023-12-22T04:20:09;21.50;51.20
38265;DHT22;24062;47.480;8.768;2023-12-22T04:22:38;21.50;51.20
38265;DHT22;24062;47.480;8.768;2023-12-22T04:25:05;21.60;51.20
38265;DHT22;24062;47.480;8.768;2023-12-22T04:27:33;21.60;51.20
38265;DHT22;24062;47.480;8.768;2023-12-22T04:30:00;21.60;51.20
38265;DHT22;24062;47.480;8.768;2023-12-22T04:32:27;21.60;51.10
38265;DHT22;24062;47.480;8.768;2023-12-22T04:34:53;21.60;51.10
38265;DHT22;24062;47.480;8.768;2023-12-22T04:37:20;21.70;51.10
38265;DHT22;24062;47.480;8.768;2023-12-22T04:39:48;21.70;51.00
38265;DHT22;24062;47.480;8.768;2023-12-22T04:42:15;21.70;51.00
38265;DHT22;24062;47.480;8.768;2023-12-22T04:44:42;21.70;51.00
38265;DHT22;24062;47.480;8.768;2023-12-22T04:47:09;21.80;51.70
38265;DHT22;24062;47.480;8.768;2023-12-22T04:49:38;21.80;51.00
38265;DHT22;24062;47.480;8.768;2023-12-22T04:52:05;21.80;51.00
38265;DHT22;24062;47.480;8.768;2023-12-22T04:54:31;21.80;50.90
38265;DHT22;24062;47.480;8.768;2023-12-22T04:57:00;21.80;50.90
38265;DHT22;24062;47.480;8.768;2023-12-22T04:59:27;21.90;51.50
38265;DHT22;24062;47.480;8.768;2023-12-22T05:01:53;21.90;50.90
38265;DHT22;24062;47.480;8.768;2023-12-22T05:04:20;21.90;50.90
38265;DHT22;24062;47.480;8.768;2023-12-22T05:06:47;21.90;50.90
38265;DHT22;24062;47.480;8.768;2023-12-22T05:09:14;21.80;50.80
38265;DHT22;24062;47.480;8.768;2023-12-22T05:11:41;21.80;50.90
38265;DHT22;24062;47.480;8.768;2023-12-22T05:14:10;21.80;50.90
38265;DHT22;24062;47.480;8.768;2023-12-22T05:16:37;21.80;50.90
38265;DHT22;24062;47.480;8.768;2023-12-22T05:19:04;21.70;50.90
38265;DHT22;24062;47.480;8.768;2023-12-22T05:21:30;21.70;50.90
38265;DHT22;24062;47.480;8.768;2023-12-22T05:23:57;21.70;51.00
38265;DHT22;24062;47.480;8.768;2023-12-22T05:26:24;21.60;51.00
38265;DHT22;24062;47.480;8.768;2023-12-22T05:28:55;21.60;51.00
38265;DHT22;24062;47.480;8.768;2023-12-22T05:31:23;21.60;51.00
38265;DHT22;24062;47.480;8.768;2023-12-22T05:33:50;21.60;51.20
38265;DHT22;24062;47.480;8.768;2023-12-22T05:36:17;21.50;51.00
38265;DHT22;24062;47.480;8.768;2023-12-22T05:38:44;21.60;51.10
38265;DHT22;24062;47.480;8.768;2023-12-22T05:41:11;21.50;51.10
38265;DHT22;24062;47.480;8.768;2023-12-22T05:43:38;21.60;51.10
38265;DHT22;24062;47.480;8.768;2023-12-22T05:46:05;21.60;51.20
38265;DHT22;24062;47.480;8.768;2023-12-22T05:48:35;21.60;51.20
38265;DHT22;24062;47.480;8.768;2023-12-22T05:51:02;21.50;51.10
38265;DHT22;24062;47.480;8.768;2023-12-22T05:53:32;21.50;51.00
38265;DHT22;24062;47.480;8.768;2023-12-22T05:55:59;21.60;51.20
38265;DHT22;24062;47.480;8.768;2023-12-22T05:58:26;21.60;51.20
38265;DHT22;24062;47.480;8.768;2023-12-22T06:00:53;21.60;51.20
38265;DHT22;24062;47.480;8.768;2023-12-22T06:03:20;21.60;51.20
38265;DHT22;24062;47.480;8.768;2023-12-22T06:05:48;21.60;51.20
38265;DHT22;24062;47.480;8.768;2023-12-22T06:08:15;21.60;51.20
38265;DHT22;24062;47.480;8.768;2023-12-22T06:10:42;21.60;51.20
38265;DHT22;24062;47.480;8.768;2023-12-22T06:13:10;21.60;51.20
38265;DHT22;24062;47.480;8.768;2023-12-22T06:15:36;21.60;51.20
38265;DHT22;24062;47.480;8.768;2023-12-22T06:18:04;21.60;51.20
38265;DHT22;24062;47.480;8.768;2023-12-22T06:20:31;21.60;51.20
38265;DHT22;24062;47.480;8.768;2023-12-22T06:22:59;21.60;51.20
38265;DHT22;24062;47.480;8.768;2023-12-22T06:25:26;21.60;51.30
38265;DHT22;24062;47.480;8.768;2023-12-22T06:27:52;21.60;51.90
38265;DHT22;24062;47.480;8.768;2023-12-22T06:30:20;21.60;51.30
38265;DHT22;24062;47.480;8.768;2023-12-22T06:32:46;21.60;51.30
38265;DHT22;24062;47.480;8.768;2023-12-22T06:35:13;21.60;51.30
38265;DHT22;24062;47.480;8.768;2023-12-22T06:37:41;21.60;51.40
38265;DHT22;24062;47.480;8.768;2023-12-22T06:40:10;21.60;51.50
38265;DHT22;24062;47.480;8.768;2023-12-22T06:42:37;21.60;51.50
38265;DHT22;24062;47.480;8.768;2023-12-22T06:45:05;21.70;51.60
38265;DHT22;24062;47.480;8.768;2023-12-22T06:47:32;21.70;51.60
38265;DHT22;24062;47.480;8.768;2023-12-22T06:49:59;21.70;52.30
38265;DHT22;24062;47.480;8.768;2023-12-22T06:52:26;21.80;51.80
38265;DHT22;24062;47.480;8.768;2023-12-22T06:54:52;21.70;51.70
38265;DHT22;24062;47.480;8.768;2023-12-22T06:57:21;21.80;51.80
38265;DHT22;24062;47.480;8.768;2023-12-22T06:59:47;21.80;51.80
38265;DHT22;24062;47.480;8.768;2023-12-22T07:02:15;21.80;51.90
38265;DHT22;24062;47.480;8.768;2023-12-22T07:04:42;21.80;51.90
38265;DHT22;24062;47.480;8.768;2023-12-22T07:07:22;21.80;51.80
38265;DHT22;24062;47.480;8.768;2023-12-22T07:09:49;21.80;51.90
38265;DHT22;24062;47.480;8.768;2023-12-22T07:12:16;21.80;51.80
38265;DHT22;24062;47.480;8.768;2023-12-22T07:14:44;21.80;51.90
38265;DHT22;24062;47.480;8.768;2023-12-22T07:17:11;21.80;51.90
38265;DHT22;24062;47.480;8.768;2023-12-22T07:19:38;21.80;51.90
38265;DHT22;24062;47.480;8.768;2023-12-22T07:22:05;21.90;52.00
38265;DHT22;24062;47.480;8.768;2023-12-22T07:24:32;21.80;52.00
38265;DHT22;24062;47.480;8.768;2023-12-22T07:26:59;21.90;51.90
38265;DHT22;24062;47.480;8.768;2023-12-22T07:29:26;21.90;51.80
38265;DHT22;24062;47.480;8.768;2023-12-22T07:31:54;21.80;51.70
38265;DHT22;24062;47.480;8.768;2023-12-22T07:34:21;21.90;52.40
38265;DHT22;24062;47.480;8.768;2023-12-22T07:36:48;21.90;51.90
38265;DHT22;24062;47.480;8.768;2023-12-22T07:39:14;21.90;51.90
38265;DHT22;24062;47.480;8.768;2023-12-22T07:41:44;21.90;51.70
38265;DHT22;24062;47.480;8.768;2023-12-22T07:44:11;21.90;51.90
38265;DHT22;24062;47.480;8.768;2023-12-22T07:46:38;21.90;51.90
38265;DHT22;24062;47.480;8.768;2023-12-22T07:49:06;22.00;51.90
38265;DHT22;24062;47.480;8.768;2023-12-22T07:51:34;22.00;52.00
38265;DHT22;24062;47.480;8.768;2023-12-22T07:54:01;22.00;51.90
38265;DHT22;24062;47.480;8.768;2023-12-22T07:56:27;22.00;51.80
38265;DHT22;24062;47.480;8.768;2023-12-22T07:58:54;22.00;51.80
38265;DHT22;24062;47.480;8.768;2023-12-22T08:01:21;22.00;51.80
38265;DHT22;24062;47.480;8.768;2023-12-22T08:03:49;22.00;51.80
38265;DHT22;24062;47.480;8.768;2023-12-22T08:06:17;22.00;51.90
38265;DHT22;24062;47.480;8.768;2023-12-22T08:08:44;22.00;51.80
38265;DHT22;24062;47.480;8.768;2023-12-22T08:11:11;22.00;51.80
38265;DHT22;24062;47.480;8.768;2023-12-22T08:13:38;22.00;51.80
38265;DHT22;24062;47.480;8.768;2023-12-22T08:16:05;22.00;51.80
38265;DHT22;24062;47.480;8.768;2023-12-22T08:18:32;22.00;51.70
38265;DHT22;24062;47.480;8.768;2023-12-22T08:20:59;22.00;51.80
38265;DHT22;24062;47.480;8.768;2023-12-22T08:23:27;22.00;51.90
38265;DHT22;24062;47.480;8.768;2023-12-22T08:25:54;22.00;51.70
38265;DHT22;24062;47.480;8.768;2023-12-22T08:28:23;22.10;51.80
38265;DHT22;24062;47.480;8.768;2023-12-22T08:30:50;22.10;51.70
38265;DHT22;24062;47.480;8.768;2023-12-22T08:33:18;22.10;51.70
38265;DHT22;24062;47.480;8.768;2023-12-22T08:35:44;22.00;51.50
38265;DHT22;24062;47.480;8.768;2023-12-22T08:38:11;22.10;51.60
38265;DHT22;24062;47.480;8.768;2023-12-22T08:40:40;22.00;51.50
38265;DHT22;24062;47.480;8.768;2023-12-22T08:43:07;22.00;51.40
38265;DHT22;24062;47.480;8.768;2023-12-22T08:45:34;22.10;51.50
38265;DHT22;24062;47.480;8.768;2023-12-22T08:48:01;22.10;51.40
38265;DHT22;24062;47.480;8.768;2023-12-22T08:50:29;22.10;51.50
38265;DHT22;24062;47.480;8.768;2023-12-22T08:52:55;22.10;51.40
38265;DHT22;24062;47.480;8.768;2023-12-22T08:55:22;22.10;51.50
38265;DHT22;24062;47.480;8.768;2023-12-22T08:57:50;22.10;51.50
38265;DHT22;24062;47.480;8.768;2023-12-22T09:00:18;22.10;51.50
38265;DHT22;24062;47.480;8.768;2023-12-22T09:02:45;22.20;51.50
38265;DHT22;24062;47.480;8.768;2023-12-22T09:05:12;22.10;51.50
38265;DHT22;24062;47.480;8.768;2023-12-22T09:07:39;22.20;51.60
38265;DHT22;24062;47.480;8.768;2023-12-22T09:10:06;22.10;51.50
38265;DHT22;24062;47.480;8.768;2023-12-22T09:12:33;22.10;51.40
38265;DHT22;24062;47.480;8.768;2023-12-22T09:15:01;22.20;51.50
38265;DHT22;24062;47.480;8.768;2023-12-22T09:17:29;22.10;51.50
38265;DHT22;24062;47.480;8.768;2023-12-22T09:19:56;22.20;51.60
38265;DHT22;24062;47.480;8.768;2023-12-22T09:22:23;22.20;51.60
38265;DHT22;24062;47.480;8.768;2023-12-22T09:24:50;22.20;51.60
38265;DHT22;24062;47.480;8.768;2023-12-22T09:27:17;22.20;51.60
38265;DHT22;24062;47.480;8.768;2023-12-22T09:29:44;22.20;51.50
38265;DHT22;24062;47.480;8.768;2023-12-22T09:32:12;22.20;51.50
38265;DHT22;24062;47.480;8.768;2023-12-22T09:34:39;22.30;51.60
38265;DHT22;24062;47.480;8.768;2023-12-22T09:37:06;22.20;51.50
38265;DHT22;24062;47.480;8.768;2023-12-22T09:39:33;22.30;51.50
38265;DHT22;24062;47.480;8.768;2023-12-22T09:42:00;22.20;51.50
38265;DHT22;24062;47.480;8.768;2023-12-22T09:44:32;22.20;51.50
38265;DHT22;24062;47.480;8.768;2023-12-22T09:47:00;22.20;51.50
38265;DHT22;24062;47.480;8.768;2023-12-22T09:49:32;22.20;51.50
38265;DHT22;24062;47.480;8.768;2023-12-22T09:52:01;22.20;51.40
38265;DHT22;24062;47.480;8.768;2023-12-22T09:54:29;22.30;51.50
38265;DHT22;24062;47.480;8.768;2023-12-22T09:56:57;22.30;51.40
38265;DHT22;24062;47.480;8.768;2023-12-22T09:59:23;22.40;51.50
38265;DHT22;24062;47.480;8.768;2023-12-22T10:01:52;22.40;51.40
38265;DHT22;24062;47.480;8.768;2023-12-22T10:04:21;22.40;51.40
38265;DHT22;24062;47.480;8.768;2023-12-22T10:06:50;22.40;51.40
38265;DHT22;24062;47.480;8.768;2023-12-22T10:09:18;22.40;51.40
38265;DHT22;24062;47.480;8.768;2023-12-22T10:11:49;22.40;51.40
38265;DHT22;24062;47.480;8.768;2023-12-22T10:14:19;22.40;51.50
38265;DHT22;24062;47.480;8.768;2023-12-22T10:16:48;22.40;51.40
38265;DHT22;24062;47.480;8.768;2023-12-22T10:19:15;22.40;51.30
38265;DHT22;24062;47.480;8.768;2023-12-22T10:21:42;22.40;51.30
38265;DHT22;24062;47.480;8.768;2023-12-22T10:24:38;22.40;51.30
38265;DHT22;24062;47.480;8.768;2023-12-22T10:27:05;22.40;51.30
38265;DHT22;24062;47.480;8.768;2023-12-22T10:29:32;22.40;51.20
38265;DHT22;24062;47.480;8.768;2023-12-22T10:32:00;22.50;51.30
38265;DHT22;24062;47.480;8.768;2023-12-22T10:34:28;22.50;51.40
38265;DHT22;24062;47.480;8.768;2023-12-22T10:36:55;22.50;51.30
38265;DHT22;24062;47.480;8.768;2023-12-22T10:39:23;22.50;51.20
38265;DHT22;24062;47.480;8.768;2023-12-22T10:41:53;22.40;51.80
38265;DHT22;24062;47.480;8.768;2023-12-22T10:44:20;22.40;51.20
38265;DHT22;24062;47.480;8.768;2023-12-22T10:46:47;22.50;51.20
38265;DHT22;24062;47.480;8.768;2023-12-22T10:49:14;22.50;51.30
38265;DHT22;24062;47.480;8.768;2023-12-22T10:51:41;22.50;51.30
38265;DHT22;24062;47.480;8.768;2023-12-22T10:54:08;22.50;51.20
38265;DHT22;24062;47.480;8.768;2023-12-22T10:56:36;22.40;51.10
38265;DHT22;24062;47.480;8.768;2023-12-22T10:59:03;22.40;51.20
38265;DHT22;24062;47.480;8.768;2023-12-22T11:01:30;22.40;51.20
38265;DHT22;24062;47.480;8.768;2023-12-22T11:04:02;22.40;51.20
38265;DHT22;24062;47.480;8.768;2023-12-22T11:06:30;22.50;51.30
38265;DHT22;24062;47.480;8.768;2023-12-22T11:09:03;22.50;51.30
38265;DHT22;24062;47.480;8.768;2023-12-22T11:11:33;22.50;51.20
38265;DHT22;24062;47.480;8.768;2023-12-22T11:14:02;22.50;51.20
38265;DHT22;24062;47.480;8.768;2023-12-22T11:16:30;22.50;51.20
38265;DHT22;24062;47.480;8.768;2023-12-22T11:18:59;22.50;51.20
38265;DHT22;24062;47.480;8.768;2023-12-22T11:21:26;22.40;51.00
38265;DHT22;24062;47.480;8.768;2023-12-22T11:23:54;22.40;51.00
38265;DHT22;24062;47.480;8.768;2023-12-22T11:26:23;22.40;51.00
38265;DHT22;24062;47.480;8.768;2023-12-22T11:28:51;22.40;51.00
38265;DHT22;24062;47.480;8.768;2023-12-22T11:31:20;22.40;51.00
38265;DHT22;24062;47.480;8.768;2023-12-22T11:33:48;22.40;51.00
38265;DHT22;24062;47.480;8.768;2023-12-22T11:36:15;22.40;51.00
38265;DHT22;24062;47.480;8.768;2023-12-22T11:38:44;22.40;50.90
38265;DHT22;24062;47.480;8.768;2023-12-22T11:41:16;22.40;50.80
38265;DHT22;24062;47.480;8.768;2023-12-22T11:43:44;22.40;50.90
38265;DHT22;24062;47.480;8.768;2023-12-22T11:46:12;22.40;50.90
38265;DHT22;24062;47.480;8.768;2023-12-22T11:48:46;22.40;50.90
38265;DHT22;24062;47.480;8.768;2023-12-22T11:51:15;22.40;50.80
38265;DHT22;24062;47.480;8.768;2023-12-22T11:53:42;22.40;51.00
38265;DHT22;24062;47.480;8.768;2023-12-22T11:56:11;22.40;50.80
38265;DHT22;24062;47.480;8.768;2023-12-22T11:58:40;22.40;50.80
38265;DHT22;24062;47.480;8.768;2023-12-22T12:01:08;22.40;50.90
38265;DHT22;24062;47.480;8.768;2023-12-22T12:03:47;22.40;50.80
38265;DHT22;24062;47.480;8.768;2023-12-22T12:06:15;22.40;50.80
38265;DHT22;24062;47.480;8.768;2023-12-22T12:08:42;22.40;50.80
38265;DHT22;24062;47.480;8.768;2023-12-22T12:11:09;22.40;50.80
38265;DHT22;24062;47.480;8.768;2023-12-22T12:13:38;22.40;50.90
38265;DHT22;24062;47.480;8.768;2023-12-22T12:16:08;22.40;50.80
38265;DHT22;24062;47.480;8.768;2023-12-22T12:18:35;22.40;50.70
38265;DHT22;24062;47.480;8.768;2023-12-22T12:21:05;22.40;50.80
38265;DHT22;24062;47.480;8.768;2023-12-22T12:23:33;22.40;50.90
38265;DHT22;24062;47.480;8.768;2023-12-22T12:26:00;22.40;50.90
38265;DHT22;24062;47.480;8.768;2023-12-22T12:28:30;22.40;51.00
38265;DHT22;24062;47.480;8.768;2023-12-22T12:30:58;22.40;50.90
38265;DHT22;24062;47.480;8.768;2023-12-22T12:33:26;22.40;51.00
38265;DHT22;24062;47.480;8.768;2023-12-22T12:35:54;22.40;51.10
38265;DHT22;24062;47.480;8.768;2023-12-22T12:38:33;22.40;51.10
38265;DHT22;24062;47.480;8.768;2023-12-22T12:41:04;22.40;51.10
38265;DHT22;24062;47.480;8.768;2023-12-22T12:43:31;22.40;51.10
38265;DHT22;24062;47.480;8.768;2023-12-22T12:46:03;22.40;51.10
38265;DHT22;24062;47.480;8.768;2023-12-22T12:48:31;22.50;51.20
38265;DHT22;24062;47.480;8.768;2023-12-22T12:51:02;22.40;51.10
38265;DHT22;24062;47.480;8.768;2023-12-22T12:53:31;22.40;51.10
38265;DHT22;24062;47.480;8.768;2023-12-22T12:55:59;22.40;51.10
38265;DHT22;24062;47.480;8.768;2023-12-22T12:58:29;22.40;51.10
38265;DHT22;24062;47.480;8.768;2023-12-22T13:01:07;22.40;51.10
38265;DHT22;24062;47.480;8.768;2023-12-22T13:03:51;22.40;51.20
38265;DHT22;24062;47.480;8.768;2023-12-22T13:06:19;22.40;51.20
38265;DHT22;24062;47.480;8.768;2023-12-22T13:08:49;22.40;51.20
38265;DHT22;24062;47.480;8.768;2023-12-22T13:11:19;22.40;51.30
38265;DHT22;24062;47.480;8.768;2023-12-22T13:13:46;22.40;51.20
38265;DHT22;24062;47.480;8.768;2023-12-22T13:16:13;22.50;51.40
38265;DHT22;24062;47.480;8.768;2023-12-22T13:18:43;22.40;51.20
38265;DHT22;24062;47.480;8.768;2023-12-22T13:21:10;22.50;51.20
38265;DHT22;24062;47.480;8.768;2023-12-22T13:23:37;22.50;51.30
38265;DHT22;24062;47.480;8.768;2023-12-22T13:26:06;22.50;51.20
38265;DHT22;24062;47.480;8.768;2023-12-22T13:28:32;22.50;51.20
38265;DHT22;24062;47.480;8.768;2023-12-22T13:30:59;22.40;51.10
38265;DHT22;24062;47.480;8.768;2023-12-22T13:33:26;22.50;51.30
38265;DHT22;24062;47.480;8.768;2023-12-22T13:35:57;22.50;51.40
38265;DHT22;24062;47.480;8.768;2023-12-22T13:38:24;22.40;51.30
38265;DHT22;24062;47.480;8.768;2023-12-22T13:40:51;22.40;51.30
38265;DHT22;24062;47.480;8.768;2023-12-22T13:43:19;22.40;51.30
38265;DHT22;24062;47.480;8.768;2023-12-22T13:45:49;22.40;51.40
38265;DHT22;24062;47.480;8.768;2023-12-22T13:48:16;22.40;51.30
38265;DHT22;24062;47.480;8.768;2023-12-22T13:50:46;22.40;51.30
38265;DHT22;24062;47.480;8.768;2023-12-22T13:53:21;22.40;51.40
38265;DHT22;24062;47.480;8.768;2023-12-22T13:55:54;22.40;51.40
38265;DHT22;24062;47.480;8.768;2023-12-22T13:58:22;22.40;51.40
38265;DHT22;24062;47.480;8.768;2023-12-22T14:00:49;22.40;51.50
38265;DHT22;24062;47.480;8.768;2023-12-22T14:03:16;22.40;51.40
38265;DHT22;24062;47.480;8.768;2023-12-22T14:05:43;22.40;51.50
38265;DHT22;24062;47.480;8.768;2023-12-22T14:08:10;22.40;51.50
38265;DHT22;24062;47.480;8.768;2023-12-22T14:10:37;22.40;51.50
38265;DHT22;24062;47.480;8.768;2023-12-22T14:13:04;22.40;51.50
38265;DHT22;24062;47.480;8.768;2023-12-22T14:15:32;22.40;51.40
38265;DHT22;24062;47.480;8.768;2023-12-22T14:17:59;22.40;51.40
38265;DHT22;24062;47.480;8.768;2023-12-22T14:20:26;22.40;51.30
38265;DHT22;24062;47.480;8.768;2023-12-22T14:22:53;22.40;51.30
38265;DHT22;24062;47.480;8.768;2023-12-22T14:25:19;22.40;51.30
38265;DHT22;24062;47.480;8.768;2023-12-22T14:27:46;22.40;51.30
38265;DHT22;24062;47.480;8.768;2023-12-22T14:30:14;22.40;51.30
38265;DHT22;24062;47.480;8.768;2023-12-22T14:32:44;22.40;51.30
38265;DHT22;24062;47.480;8.768;2023-12-22T14:35:10;22.40;51.40
38265;DHT22;24062;47.480;8.768;2023-12-22T14:37:37;22.40;51.30
38265;DHT22;24062;47.480;8.768;2023-12-22T14:40:05;22.40;51.30
38265;DHT22;24062;47.480;8.768;2023-12-22T14:42:32;22.40;51.50
38265;DHT22;24062;47.480;8.768;2023-12-22T14:44:59;22.30;51.40
38265;DHT22;24062;47.480;8.768;2023-12-22T14:47:27;22.30;51.30
38265;DHT22;24062;47.480;8.768;2023-12-22T14:49:55;22.30;51.40
38265;DHT22;24062;47.480;8.768;2023-12-22T14:52:25;22.30;51.40
38265;DHT22;24062;47.480;8.768;2023-12-22T14:54:52;22.20;51.30
38265;DHT22;24062;47.480;8.768;2023-12-22T14:57:18;22.30;51.40
38265;DHT22;24062;47.480;8.768;2023-12-22T14:59:46;22.20;51.40
38265;DHT22;24062;47.480;8.768;2023-12-22T15:02:13;22.20;51.50
38265;DHT22;24062;47.480;8.768;2023-12-22T15:04:40;22.20;51.50
38265;DHT22;24062;47.480;8.768;2023-12-22T15:07:08;22.20;51.60
38265;DHT22;24062;47.480;8.768;2023-12-22T15:09:39;22.20;51.70
38265;DHT22;24062;47.480;8.768;2023-12-22T15:12:06;22.20;51.70
38265;DHT22;24062;47.480;8.768;2023-12-22T15:14:33;22.20;51.70
38265;DHT22;24062;47.480;8.768;2023-12-22T15:17:00;22.30;51.80
38265;DHT22;24062;47.480;8.768;2023-12-22T15:19:26;22.30;51.70
38265;DHT22;24062;47.480;8.768;2023-12-22T15:21:53;22.20;51.60
38265;DHT22;24062;47.480;8.768;2023-12-22T15:24:22;22.30;51.70
38265;DHT22;24062;47.480;8.768;2023-12-22T15:26:49;22.20;51.60
38265;DHT22;24062;47.480;8.768;2023-12-22T15:29:17;22.30;51.70
38265;DHT22;24062;47.480;8.768;2023-12-22T15:31:47;22.30;51.70
38265;DHT22;24062;47.480;8.768;2023-12-22T15:34:14;22.30;51.70